Time;durP1;ratioP1;P1;durP2;ratioP2;P2;SDS_P1;SDS_P2;PMS_P1;PMS_P2;Temp;Humidity;BMP_temperature;BMP_pressure;BME280_temperature;BME280_humidity;BME280_pressure;Samples;Min_cycle;Max_cycle;Signal;HPM_P1;HPM_P2
2023/12/22 00:01:08;;;;;;;1.27;1.00;;;;;;;7.51;100.00;96848.22;5064836;28;20242;-78
2023/12/22 00:03:35;;;;;;;3.87;1.13;;;;;;;7.53;100.00;96845.47;5063061;28;20223;-78
2023/12/22 00:06:02;;;;;;;1.70;1.20;;;;;;;7.51;100.00;96848.22;5063751;28;20211;-78
2023/12/22 00:08:28;;;;;;;2.20;1.13;;;;;;;7.57;100.00;96828.47;5063662;28;20212;-78
2023/12/22 00:10:56;;;;;;;1.93;0.80;;;;;;;7.60;100.00;96828.25;5064088;28;20204;-78
2023/12/22 00:13:23;;;;;;;1.23;0.80;;;;;;;7.57;100.00;96831.09;5061970;28;20212;-78
2023/12/22 00:15:49;;;;;;;1.60;0.80;;;;;;;7.57;100.00;96820.59;5064105;28;20228;-78
2023/12/22 00:18:15;;;;;;;1.13;0.70;;;;;;;7.51;100.00;96821.06;5062180;28;20693;-78
2023/12/22 00:20:42;;;;;;;4.87;1.03;;;;;;;7.46;100.00;96823.22;5063553;28;20212;-78
2023/12/22 00:23:08;;;;;;;3.63;1.10;;;;;;;7.44;100.00;96825.97;5062950;28;20325;-78
2023/12/22 00:25:35;;;;;;;1.90;1.73;;;;;;;7.43;100.00;96820.84;5062557;28;20218;-78
2023/12/22 00:28:04;;;;;;;4.80;1.10;;;;;;;7.48;100.00;96842.34;5062655;28;20225;-78
2023/12/22 00:30:30;;;;;;;5.53;1.27;;;;;;;7.51;100.00;96848.22;5063687;28;20208;-78
2023/12/22 00:32:57;;;;;;;5.03;1.40;;;;;;;7.55;100.00;96877.72;5064908;28;20227;-79
2023/12/22 00:35:23;;;;;;;5.23;1.33;;;;;;;7.49;100.00;96875.56;5065521;28;20231;-78
2023/12/22 00:37:50;;;;;;;1.40;1.20;;;;;;;7.44;100.00;96893.47;5066168;28;20208;-78
2023/12/22 00:40:16;;;;;;;2.53;1.17;;;;;;;7.47;100.00;96911.66;5060225;28;20222;-77
2023/12/22 00:42:43;;;;;;;3.60;1.20;;;;;;;7.45;100.00;96918.78;5056840;28;20709;-78
2023/12/22 00:45:11;;;;;;;3.13;1.17;;;;;;;7.47;100.00;96901.13;5065494;28;20200;-79
2023/12/22 00:47:38;;;;;;;2.97;1.30;;;;;;;7.57;100.00;96921.34;5065048;28;20215;-78
2023/12/22 00:50:05;;;;;;;4.37;1.63;;;;;;;7.62;100.00;96923.63;5064873;28;20677;-78
2023/12/22 00:52:32;;;;;;;1.30;0.87;;;;;;;7.44;100.00;96946.03;5064985;28;20226;-79
2023/12/22 00:54:58;;;;;;;2.57;0.80;;;;;;;7.20;100.00;96947.06;5065176;28;20228;-78
2023/12/22 00:57:25;;;;;;;0.50;0.50;;;;;;;6.93;100.00;96949.94;5064312;28;20208;-78
2023/12/22 00:59:52;;;;;;;1.83;0.90;;;;;;;6.63;100.00;96952.16;5061880;28;20235;-78
2023/12/22 01:02:21;;;;;;;1.90;1.00;;;;;;;6.55;100.00;96954.50;5064246;28;20726;-78
2023/12/22 01:04:47;;;;;;;3.80;1.00;;;;;;;6.50;100.00;96951.38;5063060;28;20285;-80
2023/12/22 01:07:14;;;;;;;0.93;0.70;;;;;;;6.48;100.00;96948.00;5058269;28;20215;-79
2023/12/22 01:09:40;;;;;;;1.20;1.10;;;;;;;6.48;100.00;96934.06;5058335;28;20302;-80
2023/12/22 01:12:07;;;;;;;1.40;1.07;;;;;;;6.39;100.00;96927.66;5057884;28;20237;-78
2023/12/22 01:14:34;;;;;;;2.27;1.03;;;;;;;6.37;100.00;96924.34;5064594;28;20266;-78
2023/12/22 01:17:01;;;;;;;3.20;0.83;;;;;;;6.40;100.00;96924.09;5063545;28;20227;-78
2023/12/22 01:19:29;;;;;;;2.37;0.90;;;;;;;6.43;100.00;96913.41;5064776;28;20211;-78
2023/12/22 01:21:55;;;;;;;1.70;0.90;;;;;;;6.43;100.00;96896.78;5065465;28;20238;-78
2023/12/22 01:24:22;;;;;;;1.83;1.20;;;;;;;6.49;100.00;96912.94;5066424;28;20212;-78
2023/12/22 01:26:48;;;;;;;2.17;1.10;;;;;;;6.62;100.00;96911.13;5065552;28;20211;-78
2023/12/22 01:29:15;;;;;;;5.40;1.37;;;;;;;6.81;100.00;96905.34;5064894;28;20208;-78
2023/12/22 01:31:41;;;;;;;7.70;1.40;;;;;;;6.91;100.00;96904.53;5058066;28;20228;-78
2023/12/22 01:34:07;;;;;;;4.73;1.70;;;;;;;7.01;100.00;96899.47;5064331;28;20211;-78
2023/12/22 01:36:36;;;;;;;3.17;1.33;;;;;;;7.08;100.00;96906.75;5063839;28;20233;-78
2023/12/22 01:39:03;;;;;;;4.20;1.40;;;;;;;7.08;100.00;96905.94;5060197;28;20208;-78
2023/12/22 01:41:29;;;;;;;7.60;1.20;;;;;;;7.18;100.00;96912.16;5058413;28;20228;-78
2023/12/22 01:43:56;;;;;;;6.03;1.33;;;;;;;7.16;100.00;96909.66;5059029;28;20210;-78
2023/12/22 01:46:22;;;;;;;4.20;1.27;;;;;;;7.20;100.00;96911.09;5058460;28;20211;-78
2023/12/22 01:48:49;;;;;;;6.20;1.30;;;;;;;7.20;100.00;96905.84;5062227;28;20207;-78
2023/12/22 01:51:16;;;;;;;7.73;2.10;;;;;;;7.23;100.00;96913.50;5063191;28;20231;-78
2023/12/22 01:53:46;;;;;;;3.03;1.00;;;;;;;7.26;100.00;96910.63;5064047;28;20230;-78
2023/12/22 01:56:23;;;;;;;2.10;0.87;;;;;;;7.31;100.00;96913.75;5062710;28;20224;-81
2023/12/22 01:58:54;;;;;;;3.00;0.80;;;;;;;7.35;100.00;96923.09;5063194;28;20223;-78
2023/12/22 02:01:21;;;;;;;2.00;0.90;;;;;;;7.41;100.00;96902.41;5059961;28;20265;-78
2023/12/22 02:03:52;;;;;;;4.27;0.90;;;;;;;7.42;100.00;96903.28;5058780;28;20211;-78
2023/12/22 02:06:18;;;;;;;3.80;0.90;;;;;;;7.39;100.00;96900.88;5058395;28;20239;-78
2023/12/22 02:08:47;;;;;;;1.93;0.77;;;;;;;7.37;100.00;96908.03;5061005;28;20268;-78
2023/12/22 02:11:14;;;;;;;2.43;0.80;;;;;;;7.36;100.00;96895.84;5062721;28;20227;-78
2023/12/22 02:13:41;;;;;;;2.60;0.83;;;;;;;7.38;100.00;96899.19;5061834;28;20208;-80
2023/12/22 02:16:15;;;;;;;3.70;0.97;;;;;;;7.32;100.00;96894.41;5056052;28;20229;-78
2023/12/22 02:18:47;;;;;;;0.83;0.50;;;;;;;7.25;100.00;96893.19;5060340;28;20196;-77
2023/12/22 02:21:13;;;;;;;2.37;0.80;;;;;;;7.18;100.00;96902.50;5060386;28;20224;-78
2023/12/22 02:23:41;;;;;;;0.63;0.60;;;;;;;7.18;100.00;96916.44;5060717;28;20223;-78
2023/12/22 02:26:13;;;;;;;0.70;0.40;;;;;;;7.25;100.00;96914.22;5060928;28;20204;-79
2023/12/22 02:28:41;;;;;;;0.50;0.50;;;;;;;7.23;100.00;96922.22;5060921;28;20188;-78
2023/12/22 02:31:22;;;;;;;0.80;0.60;;;;;;;7.21;100.00;96911.94;5062606;28;20715;-78
2023/12/22 02:33:55;;;;;;;2.23;0.80;;;;;;;7.16;100.00;96920.19;5062409;28;20218;-78
2023/12/22 02:36:22;;;;;;;1.43;0.73;;;;;;;7.16;100.00;96920.19;5062186;28;20239;-78
2023/12/22 02:38:54;;;;;;;1.13;0.83;;;;;;;7.11;100.00;96927.56;5062208;28;20211;-78
2023/12/22 02:41:20;;;;;;;3.37;0.60;;;;;;;7.11;100.00;96938.06;5061430;28;20227;-78
2023/12/22 02:43:47;;;;;;;1.27;0.70;;;;;;;7.12;100.00;96920.50;5062015;28;20675;-79
2023/12/22 02:46:17;;;;;;;2.13;1.20;;;;;;;7.13;100.00;96911.66;5061744;28;20218;-78
2023/12/22 02:48:44;;;;;;;1.90;0.73;;;;;;;7.14;100.00;96905.47;5061744;28;20212;-78
2023/12/22 02:51:10;;;;;;;2.43;0.87;;;;;;;7.16;100.00;96891.28;5062451;28;20237;-78
2023/12/22 02:53:37;;;;;;;1.77;0.87;;;;;;;7.17;100.00;96906.09;5058553;28;20215;-80
2023/12/22 02:56:05;;;;;;;1.73;0.87;;;;;;;7.23;100.00;96905.63;5051551;28;20235;-80
2023/12/22 02:58:32;;;;;;;3.37;0.90;;;;;;;7.24;100.00;96896.78;5053799;28;20223;-79
2023/12/22 03:00:58;;;;;;;3.13;1.30;;;;;;;7.25;100.00;96903.72;5064238;28;20591;-80
2023/12/22 03:03:25;;;;;;;1.17;0.80;;;;;;;7.23;100.00;96895.94;5065031;28;20416;-78
2023/12/22 03:05:51;;;;;;;1.53;0.80;;;;;;;7.24;100.00;96888.91;5065257;28;20214;-78
2023/12/22 03:08:18;;;;;;;2.77;0.77;;;;;;;7.24;100.00;96902.84;5065031;28;20215;-78
2023/12/22 03:10:44;;;;;;;2.33;0.80;;;;;;;7.31;100.00;96879.59;5055080;28;20211;-77
2023/12/22 03:13:12;;;;;;;3.13;1.30;;;;;;;7.32;100.00;96877.81;5055132;28;20219;-77
2023/12/22 03:15:38;;;;;;;1.47;1.00;;;;;;;7.38;100.00;96867.66;5060680;28;20679;-77
2023/12/22 03:18:05;;;;;;;3.43;1.10;;;;;;;7.41;100.00;96877.94;5061922;28;20208;-77
2023/12/22 03:20:32;;;;;;;2.03;0.90;;;;;;;7.41;100.00;96870.88;5062490;28;20219;-78
2023/12/22 03:22:58;;;;;;;2.27;1.13;;;;;;;7.45;100.00;96889.88;5063018;28;20231;-78
2023/12/22 03:25:25;;;;;;;2.87;0.83;;;;;;;7.50;100.00;96871.97;5062994;28;20396;-78
2023/12/22 03:27:52;;;;;;;0.80;0.80;;;;;;;7.52;100.00;96880.56;5062607;28;20212;-77
2023/12/22 03:30:20;;;;;;;2.87;0.93;;;;;;;7.49;100.00;96889.56;5062845;28;20208;-78
2023/12/22 03:32:46;;;;;;;4.43;1.10;;;;;;;7.52;100.00;96881.41;5063146;28;20232;-78
2023/12/22 03:35:12;;;;;;;3.37;0.80;;;;;;;7.55;100.00;96885.59;5062916;28;20235;-78
2023/12/22 03:37:39;;;;;;;2.73;1.10;;;;;;;7.55;100.00;96901.38;5059013;28;20215;-77
2023/12/22 03:40:07;;;;;;;1.33;0.70;;;;;;;7.57;100.00;96904.72;5055457;28;20211;-78
2023/12/22 03:42:33;;;;;;;4.63;0.90;;;;;;;7.57;100.00;96908.19;5062243;28;20237;-78
2023/12/22 03:45:00;;;;;;;3.97;1.50;;;;;;;7.56;100.00;96903.06;5062069;28;20217;-79
2023/12/22 03:47:27;;;;;;;4.07;1.53;;;;;;;7.55;100.00;96902.22;5062711;28;20215;-78
2023/12/22 03:49:54;;;;;;;5.20;1.17;;;;;;;7.54;100.00;96920.75;5062981;28;20678;-77
2023/12/22 03:52:20;;;;;;;7.73;1.10;;;;;;;7.52;100.00;96922.63;5057760;28;20228;-77
2023/12/22 03:54:47;;;;;;;4.07;1.00;;;;;;;7.48;100.00;96916.78;5055363;28;20211;-79
2023/12/22 03:57:13;;;;;;;2.67;0.90;;;;;;;7.48;100.00;96915.94;5058618;28;20238;-78
2023/12/22 03:59:43;;;;;;;2.97;1.20;;;;;;;7.54;100.00;96897.09;5063033;28;20336;-77
2023/12/22 04:02:09;;;;;;;2.77;0.90;;;;;;;7.43;100.00;96933.84;5063592;28;20244;-78
2023/12/22 04:04:39;;;;;;;2.40;0.93;;;;;;;7.23;100.00;96973.94;5063573;28;20216;-78
2023/12/22 04:07:06;;;;;;;3.30;1.10;;;;;;;6.99;100.00;96978.38;5062907;28;20215;-78
2023/12/22 04:09:32;;;;;;;2.63;0.80;;;;;;;6.78;100.00;96993.03;5063496;28;20213;-77
2023/12/22 04:11:59;;;;;;;2.40;0.90;;;;;;;6.62;100.00;96981.13;5061852;28;20416;-78
2023/12/22 04:14:25;;;;;;;2.67;1.30;;;;;;;6.47;100.00;96977.81;5061389;28;20218;-77
2023/12/22 04:16:52;;;;;;;5.17;1.27;;;;;;;6.47;100.00;96977.81;5062424;28;20357;-78
2023/12/22 04:19:19;;;;;;;5.03;1.20;;;;;;;6.40;100.00;96987.06;5062489;28;20231;-78
2023/12/22 04:21:50;;;;;;;5.90;1.20;;;;;;;6.34;100.00;96966.50;5053155;28;20227;-77
2023/12/22 04:24:16;;;;;;;2.73;1.17;;;;;;;6.34;100.00;96961.25;5055259;28;20208;-79
2023/12/22 04:26:43;;;;;;;5.17;1.20;;;;;;;6.35;100.00;96935.88;5058846;28;20213;-78
2023/12/22 04:29:09;;;;;;;5.77;1.30;;;;;;;6.37;100.00;96939.22;5062270;28;20212;-78
2023/12/22 04:31:36;;;;;;;3.87;1.00;;;;;;;6.45;100.00;96937.72;5062137;28;20246;-78
2023/12/22 04:34:02;;;;;;;4.77;1.63;;;;;;;6.48;100.00;96937.50;5062438;28;20304;-78
2023/12/22 04:36:29;;;;;;;5.00;1.40;;;;;;;6.50;100.00;96929.53;5063048;28;20227;-78
2023/12/22 04:38:57;;;;;;;2.97;1.40;;;;;;;6.58;100.00;96937.66;5062270;28;20212;-78
2023/12/22 04:41:23;;;;;;;2.97;1.07;;;;;;;6.62;100.00;96949.63;5062292;28;20234;-78
2023/12/22 04:43:50;;;;;;;4.03;1.40;;;;;;;6.61;100.00;96964.56;5063320;28;20208;-79
2023/12/22 04:46:16;;;;;;;3.07;1.33;;;;;;;6.64;100.00;96974.84;5062474;28;20206;-78
2023/12/22 04:48:43;;;;;;;3.73;1.00;;;;;;;6.67;100.00;96968.53;5063063;28;20226;-79
2023/12/22 04:51:09;;;;;;;4.23;1.10;;;;;;;6.72;100.00;96985.59;5063002;28;20235;-78
2023/12/22 04:53:36;;;;;;;3.97;0.97;;;;;;;6.75;100.00;96967.03;5063186;28;20211;-79
2023/12/22 04:56:04;;;;;;;6.77;1.33;;;;;;;6.74;100.00;96988.13;5062204;28;20234;-78
2023/12/22 04:58:31;;;;;;;3.53;1.00;;;;;;;6.71;100.00;96994.44;5062245;28;20702;-79
2023/12/22 05:00:57;;;;;;;9.37;1.10;;;;;;;6.73;100.00;96982.03;5062726;28;20214;-78
2023/12/22 05:03:25;;;;;;;2.80;1.03;;;;;;;6.76;100.00;96987.06;5060276;28;20214;-78
2023/12/22 05:05:52;;;;;;;3.77;1.00;;;;;;;6.79;100.00;96984.22;5062241;28;20207;-79
2023/12/22 05:08:19;;;;;;;4.93;0.93;;;;;;;6.79;100.00;96983.41;5062524;28;20207;-78
2023/12/22 05:10:46;;;;;;;2.80;1.00;;;;;;;6.85;100.00;96994.28;5062903;28;20211;-79
2023/12/22 05:13:14;;;;;;;3.60;0.93;;;;;;;6.89;100.00;97008.88;5062024;28;20682;-78
2023/12/22 05:15:40;;;;;;;4.83;0.80;;;;;;;6.89;100.00;97021.19;5062261;28;20238;-78
2023/12/22 05:18:07;;;;;;;5.77;1.10;;;;;;;6.92;100.00;97016.53;5062486;28;20210;-78
2023/12/22 05:20:33;;;;;;;6.17;1.63;;;;;;;6.94;100.00;97027.75;5062356;28;20207;-78
2023/12/22 05:23:00;;;;;;;8.43;1.40;;;;;;;6.98;100.00;97016.09;5061478;28;20231;-78
2023/12/22 05:25:26;;;;;;;4.17;1.00;;;;;;;6.97;100.00;97011.75;5062688;28;20218;-79
2023/12/22 05:27:53;;;;;;;5.47;1.47;;;;;;;6.99;100.00;97001.16;5062584;28;20217;-78
2023/12/22 05:30:20;;;;;;;5.37;1.37;;;;;;;7.05;100.00;97005.97;5063018;28;20215;-79
2023/12/22 05:32:47;;;;;;;4.73;1.33;;;;;;;7.06;100.00;97013.75;5062662;28;20242;-78
2023/12/22 05:35:13;;;;;;;4.20;1.40;;;;;;;7.05;100.00;97016.47;5061585;28;20210;-79
2023/12/22 05:37:40;;;;;;;4.07;1.20;;;;;;;7.08;100.00;97013.63;5062540;28;20208;-79
2023/12/22 05:40:08;;;;;;;3.87;1.37;;;;;;;7.05;100.00;97006.81;5062442;28;20210;-79
2023/12/22 05:42:34;;;;;;;6.10;2.20;;;;;;;7.04;100.00;97020.06;5061615;28;20710;-79
2023/12/22 05:45:01;;;;;;;4.73;1.43;;;;;;;7.02;100.00;97020.16;5060816;28;20219;-78
2023/12/22 05:47:29;;;;;;;2.77;1.20;;;;;;;7.04;100.00;97020.91;5061995;28;20211;-79
2023/12/22 05:49:55;;;;;;;2.17;1.17;;;;;;;7.05;100.00;97016.47;5061620;28;20682;-78
2023/12/22 05:52:22;;;;;;;7.80;1.63;;;;;;;7.08;100.00;97003.94;5062180;28;20231;-78
2023/12/22 05:54:48;;;;;;;7.60;1.37;;;;;;;7.10;100.00;97014.34;5062141;28;20234;-78
2023/12/22 05:57:15;;;;;;;6.77;1.60;;;;;;;7.21;100.00;97015.22;5062196;28;20712;-78
2023/12/22 05:59:41;;;;;;;4.63;1.37;;;;;;;7.28;100.00;97008.59;5062805;28;20214;-79
2023/12/22 06:02:08;;;;;;;4.50;1.43;;;;;;;7.29;100.00;96991.88;5060729;28;20246;-79
2023/12/22 06:04:35;;;;;;;7.37;1.73;;;;;;;7.32;100.00;97004.78;5061268;28;20214;-78
2023/12/22 06:07:02;;;;;;;9.60;1.80;;;;;;;7.36;100.00;96996.53;5062065;28;20294;-79
2023/12/22 06:09:29;;;;;;;3.27;1.23;;;;;;;7.42;100.00;97034.69;5061908;28;20207;-79
2023/12/22 06:11:55;;;;;;;5.10;1.50;;;;;;;7.46;100.00;97025.63;5062688;28;20228;-78
2023/12/22 06:14:22;;;;;;;6.17;1.40;;;;;;;7.45;100.00;97035.31;5063131;28;20310;-78
2023/12/22 06:16:48;;;;;;;4.63;1.60;;;;;;;7.51;100.00;97020.84;5062313;28;20227;-78
2023/12/22 06:19:16;;;;;;;4.70;1.57;;;;;;;7.49;100.00;97025.41;5062450;28;20223;-78
2023/12/22 06:21:44;;;;;;;6.37;1.40;;;;;;;7.51;100.00;97032.22;5063093;28;20269;-78
2023/12/22 06:24:10;;;;;;;2.83;1.23;;;;;;;7.49;100.00;97038.53;5062961;28;20218;-78
2023/12/22 06:26:37;;;;;;;8.37;1.67;;;;;;;7.46;100.00;97049.28;5062807;28;20208;-78
2023/12/22 06:29:04;;;;;;;4.97;1.83;;;;;;;7.44;100.00;97072.22;5062957;28;20221;-78
2023/12/22 06:31:30;;;;;;;3.47;1.20;;;;;;;7.46;100.00;97072.94;5062679;28;20691;-78
2023/12/22 06:34:01;;;;;;;5.13;1.50;;;;;;;7.45;100.00;97079.13;5064286;28;20212;-78
2023/12/22 06:36:28;;;;;;;3.73;1.37;;;;;;;7.52;100.00;97075.09;5067659;28;20223;-78
2023/12/22 06:38:57;;;;;;;7.37;1.60;;;;;;;7.51;100.00;97076.91;5066629;28;20261;-78
2023/12/22 06:41:25;;;;;;;3.77;1.57;;;;;;;7.51;100.00;97074.28;5067038;28;20238;-78
2023/12/22 06:43:52;;;;;;;4.90;1.40;;;;;;;7.51;100.00;97083.94;5068505;28;20216;-78
2023/12/22 06:46:19;;;;;;;5.70;1.27;;;;;;;7.51;100.00;97078.69;5069327;28;20212;-81
2023/12/22 06:48:46;;;;;;;3.67;1.23;;;;;;;7.51;100.00;97078.69;5069151;28;20204;-77
2023/12/22 06:51:20;;;;;;;5.93;1.50;;;;;;;7.50;100.00;97085.75;5061202;28;20239;-78
2023/12/22 06:53:46;;;;;;;3.73;1.10;;;;;;;7.54;100.00;97083.75;5067061;28;20218;-78
2023/12/22 06:56:19;;;;;;;7.27;1.53;;;;;;;7.56;100.00;97089.72;5065592;28;20228;-80
2023/12/22 06:58:47;;;;;;;3.63;1.20;;;;;;;7.62;100.00;97102.41;5067160;28;20686;-80
2023/12/22 07:01:14;;;;;;;5.63;1.27;;;;;;;7.55;100.00;97102.03;5067193;28;20318;-80
2023/12/22 07:03:40;;;;;;;5.57;1.63;;;;;;;7.57;100.00;97115.91;5058889;28;20220;-80
2023/12/22 07:06:07;;;;;;;4.83;1.33;;;;;;;7.54;100.00;97123.19;5069466;28;20203;-79
2023/12/22 07:08:34;;;;;;;5.57;1.50;;;;;;;7.55;100.00;97122.22;5067357;28;20287;-80
2023/12/22 07:11:00;;;;;;;6.13;1.40;;;;;;;7.55;100.00;97132.72;5072205;28;20207;-79
2023/12/22 07:13:29;;;;;;;3.97;1.30;;;;;;;7.55;100.00;97148.50;5084418;28;20253;-79
2023/12/22 07:15:55;;;;;;;7.67;1.77;;;;;;;7.56;100.00;97139.66;5085761;28;20213;-78
2023/12/22 07:18:22;;;;;;;8.23;1.53;;;;;;;7.56;100.00;97155.44;5082080;28;20216;-80
2023/12/22 07:20:48;;;;;;;4.97;1.57;;;;;;;7.58;100.00;97153.53;5081631;28;20289;-78
2023/12/22 07:23:15;;;;;;;6.20;1.90;;;;;;;7.56;100.00;97155.44;5084416;28;20558;-78
2023/12/22 07:25:41;;;;;;;4.80;1.90;;;;;;;7.61;100.00;97158.59;5083530;28;20271;-78
2023/12/22 07:28:08;;;;;;;4.50;1.70;;;;;;;7.62;100.00;97161.09;5087492;28;20210;-80
2023/12/22 07:30:36;;;;;;;8.30;2.03;;;;;;;7.59;100.00;97171.00;5086550;28;20229;-78
2023/12/22 07:33:02;;;;;;;5.50;1.67;;;;;;;7.56;100.00;97176.47;5083586;28;20669;-78
2023/12/22 07:35:29;;;;;;;7.73;1.80;;;;;;;7.57;100.00;97173.75;5083698;28;20218;-79
2023/12/22 07:37:55;;;;;;;6.20;1.20;;;;;;;7.60;100.00;97167.44;5081706;28;20628;-82
2023/12/22 07:40:22;;;;;;;5.97;1.73;;;;;;;7.57;100.00;97162.38;5081018;28;20221;-80
2023/12/22 07:42:50;;;;;;;5.73;1.30;;;;;;;7.86;100.00;97159.31;5078058;28;20234;-79
2023/12/22 07:45:17;;;;;;;7.73;1.20;;;;;;;7.74;100.00;97154.09;5085296;28;20210;-80
2023/12/22 07:47:46;;;;;;;5.13;1.20;;;;;;;7.71;100.00;97160.41;5083069;28;20219;-78
2023/12/22 07:50:12;;;;;;;5.23;1.80;;;;;;;7.67;100.00;97173.91;5084581;28;20243;-78
2023/12/22 07:52:39;;;;;;;5.70;1.20;;;;;;;7.62;100.00;97173.41;5084493;28;20231;-78
2023/12/22 07:55:07;;;;;;;4.33;1.10;;;;;;;7.66;100.00;97178.31;5085357;28;20306;-78
2023/12/22 07:57:34;;;;;;;2.07;1.10;;;;;;;7.62;100.00;97165.50;5084858;28;20228;-80
2023/12/22 08:00:00;;;;;;;4.53;1.30;;;;;;;7.58;100.00;97180.69;5084463;28;20226;-78
2023/12/22 08:02:27;;;;;;;7.93;1.60;;;;;;;7.52;100.00;97175.00;5085135;28;20235;-78
2023/12/22 08:04:55;;;;;;;3.83;1.17;;;;;;;7.48;100.00;97178.81;5085429;28;20207;-78
2023/12/22 08:07:21;;;;;;;4.33;1.20;;;;;;;7.40;100.00;97196.91;5086824;28;20652;-78
2023/12/22 08:09:48;;;;;;;2.23;1.03;;;;;;;7.23;100.00;97207.81;5085714;28;20212;-78
2023/12/22 08:12:15;;;;;;;4.57;1.50;;;;;;;7.17;100.00;97199.50;5086930;28;20233;-78
2023/12/22 08:14:41;;;;;;;3.83;1.03;;;;;;;7.06;100.00;97218.66;5085910;28;20210;-79
2023/12/22 08:17:08;;;;;;;4.83;1.53;;;;;;;6.97;100.00;97214.03;5085951;28;20639;-78
2023/12/22 08:19:37;;;;;;;4.33;1.33;;;;;;;6.92;100.00;97216.16;5086363;28;20212;-79
2023/12/22 08:22:05;;;;;;;4.93;1.57;;;;;;;6.88;100.00;97214.66;5084373;28;20269;-80
2023/12/22 08:24:31;;;;;;;5.20;1.33;;;;;;;6.84;100.00;97207.94;5084277;28;20204;-80
2023/12/22 08:26:58;;;;;;;7.40;1.50;;;;;;;6.82;100.00;97199.34;5085405;28;20210;-80
2023/12/22 08:29:24;;;;;;;6.87;1.93;;;;;;;6.77;100.00;97205.88;5084445;28;20207;-80
2023/12/22 08:31:51;;;;;;;8.07;1.53;;;;;;;6.72;100.00;97216.66;5084316;28;20226;-80
2023/12/22 08:34:17;;;;;;;8.57;1.70;;;;;;;6.70;100.00;97210.69;5080789;28;20629;-80
2023/12/22 08:36:44;;;;;;;5.50;1.53;;;;;;;6.67;100.00;97210.91;5081866;28;20250;-78
2023/12/22 08:39:12;;;;;;;9.40;1.90;;;;;;;6.64;100.00;97216.34;5085998;28;20210;-78
2023/12/22 08:41:38;;;;;;;7.93;1.87;;;;;;;6.63;100.00;97219.94;5083907;28;20226;-78
2023/12/22 08:44:05;;;;;;;6.23;2.50;;;;;;;6.66;100.00;97203.13;5084428;28;20265;-78
2023/12/22 08:46:31;;;;;;;8.17;2.80;;;;;;;6.65;100.00;97194.41;5084086;28;20271;-78
2023/12/22 08:48:59;;;;;;;9.23;2.90;;;;;;;6.65;100.00;97186.53;5086186;28;20211;-79
2023/12/22 08:51:25;;;;;;;14.93;2.63;;;;;;;6.63;100.00;97188.41;5079571;28;20717;-79
2023/12/22 08:53:52;;;;;;;8.40;2.80;;;;;;;6.60;100.00;97188.63;5082984;28;20582;-79
2023/12/22 08:56:21;;;;;;;13.73;2.90;;;;;;;6.64;100.00;97176.13;5082423;28;20589;-80
2023/12/22 08:58:47;;;;;;;10.90;2.63;;;;;;;6.66;100.00;97198.69;5082549;28;20211;-80
2023/12/22 09:01:15;;;;;;;11.57;2.20;;;;;;;6.72;100.00;97198.28;5082918;28;20241;-79
2023/12/22 09:03:45;;;;;;;8.70;2.77;;;;;;;6.70;100.00;97204.56;5081548;28;20222;-79
2023/12/22 09:06:13;;;;;;;7.77;2.23;;;;;;;6.70;100.00;97200.19;5081607;28;20260;-80
2023/12/22 09:08:39;;;;;;;9.13;2.23;;;;;;;6.78;100.00;97194.41;5081283;28;20211;-80
2023/12/22 09:11:06;;;;;;;10.70;2.20;;;;;;;6.75;100.00;97198.09;5080760;28;20234;-80
2023/12/22 09:13:35;;;;;;;10.17;2.03;;;;;;;6.81;100.00;97187.16;5081008;28;20215;-79
2023/12/22 09:16:02;;;;;;;11.37;2.97;;;;;;;6.85;100.00;97199.09;5081169;28;20286;-79
2023/12/22 09:18:29;;;;;;;6.97;2.07;;;;;;;6.90;100.00;97197.00;5081589;28;20229;-79
2023/12/22 09:20:55;;;;;;;8.83;2.10;;;;;;;6.95;100.00;97189.66;5081729;28;20207;-78
2023/12/22 09:23:22;;;;;;;7.33;2.10;;;;;;;7.02;100.00;97185.66;5081118;28;20216;-79
2023/12/22 09:25:49;;;;;;;7.27;2.23;;;;;;;6.97;100.00;97206.13;5082068;28;20646;-79
2023/12/22 09:28:16;;;;;;;11.15;2.53;;;;;;;7.02;100.00;97204.03;5066240;28;20443;-78
2023/12/22 09:30:45;;;;;;;7.37;2.13;;;;;;;7.06;100.00;97218.66;5071546;28;20203;-79
2023/12/22 09:33:12;;;;;;;7.10;2.03;;;;;;;7.09;100.00;97213.16;5080342;28;20249;-79
2023/12/22 09:35:41;;;;;;;10.00;1.80;;;;;;;7.11;100.00;97216.56;5079881;28;20213;-79
2023/12/22 09:38:08;;;;;;;10.13;2.17;;;;;;;7.10;100.00;97217.50;5079923;28;20293;-79
2023/12/22 09:40:36;;;;;;;11.10;1.90;;;;;;;7.11;100.00;97227.06;5080946;28;20203;-79
2023/12/22 09:43:05;;;;;;;8.27;2.37;;;;;;;7.18;100.00;97237.97;5077839;28;20227;-79
2023/12/22 09:45:34;;;;;;;9.37;2.53;;;;;;;7.26;100.00;97228.59;5076393;28;20215;-79
2023/12/22 09:48:03;;;;;;;7.87;2.13;;;;;;;7.27;100.00;97224.19;5081557;28;20308;-80
2023/12/22 09:50:30;;;;;;;9.47;2.27;;;;;;;7.33;100.00;97232.47;5080801;28;20305;-79
2023/12/22 09:52:58;;;;;;;10.43;2.40;;;;;;;7.34;100.00;97231.56;5080553;28;20235;-78
2023/12/22 09:55:26;;;;;;;11.10;2.20;;;;;;;7.36;100.00;97237.53;5080520;28;20214;-79
2023/12/22 09:57:54;;;;;;;10.77;2.50;;;;;;;7.46;100.00;97228.03;5080862;28;20818;-79
2023/12/22 10:00:23;;;;;;;13.57;2.40;;;;;;;7.52;100.00;97223.19;5080194;28;20211;-79
2023/12/22 10:02:50;;;;;;;8.70;2.37;;;;;;;7.54;100.00;97215.19;5082117;28;20636;-79
2023/12/22 10:05:18;;;;;;;9.53;2.13;;;;;;;7.56;100.00;97213.28;5084867;28;20207;-79
2023/12/22 10:07:46;;;;;;;9.53;2.47;;;;;;;7.58;100.00;97221.88;5086761;28;20218;-79
2023/12/22 10:10:13;;;;;;;7.53;1.77;;;;;;;7.59;100.00;97202.56;5085814;28;20225;-79
2023/12/22 10:12:42;;;;;;;5.70;2.07;;;;;;;7.59;100.00;97202.56;5085887;28;20227;-79
2023/12/22 10:15:10;;;;;;;6.50;2.13;;;;;;;7.60;100.00;97201.59;5085550;28;20211;-78
2023/12/22 10:17:40;;;;;;;9.43;2.10;;;;;;;7.69;100.00;97182.53;5082987;28;20709;-79
2023/12/22 10:20:08;;;;;;;10.40;2.20;;;;;;;7.71;100.00;97170.13;5081068;28;20208;-78
2023/12/22 10:22:36;;;;;;;7.67;1.67;;;;;;;7.70;100.00;97169.28;5054107;28;20235;-78
2023/12/22 10:25:02;;;;;;;6.30;2.47;;;;;;;7.74;100.00;97148.84;5047663;28;20307;-77
2023/12/22 10:27:31;;;;;;;12.13;2.30;;;;;;;7.77;100.00;97148.63;5060372;28;21030;-77
2023/12/22 10:30:03;;;;;;;6.83;1.77;;;;;;;7.81;100.00;97160.59;5061144;28;20706;-78
2023/12/22 10:32:29;;;;;;;14.03;1.93;;;;;;;7.84;100.00;97155.13;5069735;28;20698;-78
2023/12/22 10:34:57;;;;;;;6.53;1.83;;;;;;;7.88;100.00;97153.91;5074898;28;20561;-78
2023/12/22 10:37:26;;;;;;;7.07;1.93;;;;;;;7.92;100.00;97137.81;5069777;28;20689;-77
2023/12/22 10:39:55;;;;;;;8.40;2.10;;;;;;;7.93;100.00;97133.38;5070930;28;20207;-77
2023/12/22 10:42:21;;;;;;;9.47;1.93;;;;;;;7.95;100.00;97129.69;5070663;28;20234;-77
2023/12/22 10:44:49;;;;;;;7.57;1.97;;;;;;;8.01;100.00;97131.00;5066380;28;20219;-77
2023/12/22 10:47:16;;;;;;;8.43;2.17;;;;;;;8.03;100.00;97113.34;5066793;28;20208;-78
2023/12/22 10:49:42;;;;;;;8.93;2.17;;;;;;;8.06;100.00;97107.81;5071258;28;20885;-79
2023/12/22 10:52:16;;;;;;;10.20;1.77;;;;;;;8.08;100.00;97100.66;5080580;28;20239;-78
2023/12/22 10:54:43;;;;;;;5.07;1.83;;;;;;;8.14;100.00;97106.28;5081942;28;20234;-78
2023/12/22 10:57:11;;;;;;;8.70;1.73;;;;;;;8.16;100.00;97108.81;5082373;28;20223;-79
2023/12/22 10:59:45;;;;;;;6.97;2.10;;;;;;;8.17;100.00;97118.38;5082998;28;20212;-79
2023/12/22 11:02:16;;;;;;;9.23;1.40;;;;;;;8.24;100.00;97106.47;5083780;28;20249;-79
2023/12/22 11:04:54;;;;;;;1.70;1.23;;;;;;;8.25;100.00;97109.00;5082915;28;20656;-79
2023/12/22 11:07:24;;;;;;;3.43;1.10;;;;;;;8.23;100.00;97104.78;5085399;28;20202;-79
2023/12/22 11:09:52;;;;;;;7.67;1.40;;;;;;;8.19;100.00;97108.56;5074208;28;20207;-79
2023/12/22 11:12:20;;;;;;;6.17;1.40;;;;;;;8.21;100.00;97104.91;5070771;28;20706;-80
2023/12/22 11:14:50;;;;;;;3.63;1.20;;;;;;;8.22;100.00;97116.28;5069999;28;20208;-77
2023/12/22 11:17:20;;;;;;;3.77;1.00;;;;;;;8.18;100.00;97120.91;5069418;28;20236;-78
2023/12/22 11:19:50;;;;;;;2.97;1.40;;;;;;;8.19;100.00;97105.94;5069361;28;20215;-78
2023/12/22 11:22:18;;;;;;;3.03;1.10;;;;;;;8.16;100.00;97098.28;5073499;28;20239;-78
2023/12/22 11:24:47;;;;;;;4.13;1.27;;;;;;;8.18;100.00;97093.75;5077159;28;20246;-78
2023/12/22 11:27:16;;;;;;;3.63;1.17;;;;;;;8.13;100.00;97101.13;5082450;28;20208;-78
2023/12/22 11:29:47;;;;;;;1.80;0.90;;;;;;;8.09;100.00;97099.72;5076904;28;20211;-77
2023/12/22 11:32:16;;;;;;;1.87;1.00;;;;;;;8.09;100.00;97076.03;5072339;28;20224;-77